Time;durP1;ratioP1;P1;durP2;ratioP2;P2;SDS_P1;SDS_P2;PMS_P1;PMS_P2;Temp;Humidity;BMP_temperature;BMP_pressure;BME280_temperature;BME280_humidity;BME280_pressure;Samples;Min_cycle;Max_cycle;Signal;HPM_P1;HPM_P2
2023/11/21 00:01:18;;;;;;;221.43;55.97;;;;;;;;;;5020381;28;20570;-45
2023/11/21 00:03:44;;;;;;;221.05;54.80;;;;;;;;;;5020969;28;20203;-45
2023/11/21 00:06:10;;;;;;;222.98;56.55;;;;;;;;;;5021685;28;20200;-45
2023/11/21 00:08:36;;;;;;;219.67;54.80;;;;;;;;;;5021297;28;20712;-44
2023/11/21 00:11:05;;;;;;;219.98;54.15;;;;;;;;;;5021623;28;20461;-43
2023/11/21 00:13:31;;;;;;;221.27;54.13;;;;;;;;;;5025942;28;20173;-45
2023/11/21 00:15:57;;;;;;;222.70;55.10;;;;;;;;;;5024502;28;20175;-44
2023/11/21 00:18:23;;;;;;;224.82;56.67;;;;;;;;;;5018743;28;20414;-44
2023/11/21 00:20:49;;;;;;;223.13;56.90;;;;;;;;;;5018400;28;20566;-45
2023/11/21 00:23:14;;;;;;;222.00;54.67;;;;;;;;;;5023114;28;20419;-45
2023/11/21 00:25:40;;;;;;;223.90;57.07;;;;;;;;;;5024522;28;20402;-44
2023/11/21 00:28:06;;;;;;;223.00;56.27;;;;;;;;;;5019350;28;20427;-44
2023/11/21 00:30:33;;;;;;;222.00;56.30;;;;;;;;;;5023950;28;20414;-44
2023/11/21 00:32:59;;;;;;;222.35;56.65;;;;;;;;;;5023232;28;20417;-45
2023/11/21 00:35:25;;;;;;;223.00;56.65;;;;;;;;;;5016731;28;20646;-44
2023/11/21 00:37:52;;;;;;;223.68;58.10;;;;;;;;;;5024083;28;20209;-45
2023/11/21 00:40:22;;;;;;;224.38;58.67;;;;;;;;;;5021638;28;20226;-44
2023/11/21 00:42:48;;;;;;;222.45;55.58;;;;;;;;;;5021710;28;20171;-45
2023/11/21 00:45:14;;;;;;;222.00;55.53;;;;;;;;;;5022661;28;20203;-44
2023/11/21 00:47:40;;;;;;;221.33;56.40;;;;;;;;;;5020501;28;20703;-45
2023/11/21 00:50:06;;;;;;;223.13;57.00;;;;;;;;;;5021376;28;20427;-44
2023/11/21 00:52:33;;;;;;;221.45;55.25;;;;;;;;;;5020733;28;20651;-45
2023/11/21 00:55:00;;;;;;;222.68;57.75;;;;;;;;;;5026371;28;20187;-45
2023/11/21 00:57:26;;;;;;;227.32;60.33;;;;;;;;;;5017488;28;20191;-45
2023/11/21 00:59:52;;;;;;;223.50;56.95;;;;;;;;;;5022664;28;20179;-44
2023/11/21 01:02:18;;;;;;;226.02;57.20;;;;;;;;;;5030630;28;20164;-45
2023/11/21 01:04:44;;;;;;;221.30;54.92;;;;;;;;;;5031945;28;20172;-45
2023/11/21 01:07:10;;;;;;;219.13;53.27;;;;;;;;;;5015845;28;20206;-45
2023/11/21 01:09:36;;;;;;;220.03;54.97;;;;;;;;;;5024083;28;20503;-43
2023/11/21 01:12:02;;;;;;;221.37;54.30;;;;;;;;;;5024153;28;20435;-44
2023/11/21 01:14:28;;;;;;;217.80;54.35;;;;;;;;;;5016155;28;20410;-44
2023/11/21 01:16:54;;;;;;;220.67;55.43;;;;;;;;;;5032189;28;20556;-45
2023/11/21 01:19:20;;;;;;;217.45;53.08;;;;;;;;;;5031156;28;20417;-45
2023/11/21 01:21:46;;;;;;;219.97;54.43;;;;;;;;;;5015617;28;20206;-44
2023/11/21 01:24:12;;;;;;;220.43;55.45;;;;;;;;;;5001490;28;20546;-44
2023/11/21 01:26:38;;;;;;;219.43;53.30;;;;;;;;;;4999310;28;20231;-45
2023/11/21 01:29:05;;;;;;;222.43;55.23;;;;;;;;;;5008714;28;20432;-45
2023/11/21 01:31:31;;;;;;;223.50;56.00;;;;;;;;;;4992546;28;20821;-45
2023/11/21 01:33:57;;;;;;;221.80;55.15;;;;;;;;;;5011100;28;20172;-45
2023/11/21 01:36:23;;;;;;;222.88;55.15;;;;;;;;;;4996774;28;20199;-45
2023/11/21 01:38:49;;;;;;;224.43;57.57;;;;;;;;;;5002976;28;20184;-44
2023/11/21 01:41:15;;;;;;;220.73;55.07;;;;;;;;;;5005065;28;20467;-44
2023/11/21 01:43:41;;;;;;;223.90;57.90;;;;;;;;;;4994796;28;20446;-44
2023/11/21 01:46:08;;;;;;;223.77;57.83;;;;;;;;;;5011677;28;20457;-45
2023/11/21 01:48:35;;;;;;;222.18;55.92;;;;;;;;;;4993143;28;20211;-44
2023/11/21 01:51:01;;;;;;;220.63;55.03;;;;;;;;;;5006651;28;20207;-44
2023/11/21 01:53:28;;;;;;;220.48;56.03;;;;;;;;;;5001307;28;20180;-44
2023/11/21 01:55:54;;;;;;;222.85;56.00;;;;;;;;;;4998328;28;20175;-44
2023/11/21 01:58:20;;;;;;;224.02;57.65;;;;;;;;;;5009224;28;20188;-44
2023/11/21 02:00:46;;;;;;;227.48;60.75;;;;;;;;;;4978341;28;20682;-44
2023/11/21 02:03:12;;;;;;;220.90;56.10;;;;;;;;;;5013702;28;20214;-44
2023/11/21 02:05:38;;;;;;;229.83;63.27;;;;;;;;;;5000876;28;20407;-44
2023/11/21 02:08:04;;;;;;;222.73;56.70;;;;;;;;;;5005130;28;20457;-45
2023/11/21 02:10:31;;;;;;;222.30;57.40;;;;;;;;;;5009498;28;20873;-44
2023/11/21 02:12:58;;;;;;;222.35;56.15;;;;;;;;;;4997827;28;20184;-44
2023/11/21 02:15:28;;;;;;;219.50;55.05;;;;;;;;;;5020113;28;20723;-44
2023/11/21 02:17:55;;;;;;;218.45;55.20;;;;;;;;;;5023325;28;20235;-45
2023/11/21 02:20:22;;;;;;;220.32;55.35;;;;;;;;;;5023786;28;20568;-45
2023/11/21 02:22:57;;;;;;;220.20;54.83;;;;;;;;;;5026821;28;20191;-45
2023/11/21 02:25:30;;;;;;;226.88;60.45;;;;;;;;;;5028733;28;20548;-45
2023/11/21 02:27:57;;;;;;;220.82;56.00;;;;;;;;;;5029286;28;20722;-44
2023/11/21 02:30:24;;;;;;;220.13;56.90;;;;;;;;;;5023162;28;20285;-44
2023/11/21 02:32:53;;;;;;;220.55;57.45;;;;;;;;;;5023060;28;20266;-44
2023/11/21 02:35:20;;;;;;;222.43;56.33;;;;;;;;;;5024733;28;20192;-45
2023/11/21 02:37:46;;;;;;;222.18;56.75;;;;;;;;;;5022993;28;20196;-44
2023/11/21 02:40:12;;;;;;;221.25;55.60;;;;;;;;;;5022933;28;20202;-44
2023/11/21 02:42:40;;;;;;;221.07;55.65;;;;;;;;;;5022954;28;20174;-44
2023/11/21 02:45:07;;;;;;;222.77;57.08;;;;;;;;;;5027916;28;20227;-45
2023/11/21 02:47:33;;;;;;;221.65;55.13;;;;;;;;;;5022535;28;20680;-44
2023/11/21 02:49:59;;;;;;;224.45;57.75;;;;;;;;;;5019931;28;20176;-44
2023/11/21 02:52:25;;;;;;;222.27;57.15;;;;;;;;;;5022905;28;20172;-44
2023/11/21 02:54:51;;;;;;;221.87;56.67;;;;;;;;;;5022889;28;20230;-45
2023/11/21 02:57:18;;;;;;;223.47;57.10;;;;;;;;;;5024720;28;20442;-45
2023/11/21 02:59:44;;;;;;;222.88;56.22;;;;;;;;;;5025074;28;20961;-44
2023/11/21 03:02:10;;;;;;;222.65;56.20;;;;;;;;;;5026054;28;20332;-45
2023/11/21 03:04:36;;;;;;;223.83;57.67;;;;;;;;;;5021367;28;20262;-45
2023/11/21 03:07:02;;;;;;;220.27;54.77;;;;;;;;;;5017699;28;20426;-45
2023/11/21 03:09:28;;;;;;;222.90;57.70;;;;;;;;;;5025633;28;20414;-44
2023/11/21 03:11:54;;;;;;;223.40;56.97;;;;;;;;;;5023390;28;20409;-45
2023/11/21 03:14:20;;;;;;;220.05;54.88;;;;;;;;;;5025473;28;20457;-44
2023/11/21 03:16:46;;;;;;;219.23;54.77;;;;;;;;;;5022756;28;20212;-44
2023/11/21 03:19:12;;;;;;;219.30;56.17;;;;;;;;;;5024131;28;20417;-44
2023/11/21 03:21:38;;;;;;;223.98;58.63;;;;;;;;;;5019768;28;20468;-45
2023/11/21 03:24:04;;;;;;;221.87;55.87;;;;;;;;;;5024993;28;20618;-45
2023/11/21 03:26:30;;;;;;;221.55;56.67;;;;;;;;;;5023037;28;20434;-44
2023/11/21 03:28:56;;;;;;;221.38;56.97;;;;;;;;;;5021392;28;20198;-44
2023/11/21 03:31:22;;;;;;;220.33;56.50;;;;;;;;;;5024149;28;20530;-45
2023/11/21 03:33:48;;;;;;;221.00;56.47;;;;;;;;;;5022233;28;20748;-44
2023/11/21 03:36:14;;;;;;;218.80;54.57;;;;;;;;;;5022036;28;20441;-44
2023/11/21 03:38:41;;;;;;;220.82;56.80;;;;;;;;;;5021960;28;20829;-45
2023/11/21 03:41:11;;;;;;;221.52;57.05;;;;;;;;;;5026981;28;20195;-45
2023/11/21 03:43:37;;;;;;;223.55;59.00;;;;;;;;;;5022614;28;20202;-46
2023/11/21 03:46:03;;;;;;;222.65;57.90;;;;;;;;;;5018849;28;20302;-44
2023/11/21 03:48:30;;;;;;;222.20;58.03;;;;;;;;;;5021590;28;20562;-44
2023/11/21 03:50:56;;;;;;;220.32;56.92;;;;;;;;;;5021844;28;20172;-44
2023/11/21 03:53:22;;;;;;;221.80;56.40;;;;;;;;;;5024701;28;20650;-44
2023/11/21 03:55:49;;;;;;;221.45;56.60;;;;;;;;;;5023698;28;20795;-45
2023/11/21 03:58:15;;;;;;;222.98;57.72;;;;;;;;;;5025577;28;20548;-45
2023/11/21 04:00:41;;;;;;;223.30;59.97;;;;;;;;;;5021208;28;20238;-45
2023/11/21 04:03:07;;;;;;;219.70;55.65;;;;;;;;;;5017312;28;20788;-44
2023/11/21 04:05:33;;;;;;;222.77;59.90;;;;;;;;;;5024717;28;20175;-45
2023/11/21 04:07:59;;;;;;;221.50;58.47;;;;;;;;;;5022091;28;20202;-45
2023/11/21 04:10:25;;;;;;;220.87;57.13;;;;;;;;;;5021660;28;20482;-45
2023/11/21 04:12:51;;;;;;;219.50;56.33;;;;;;;;;;5021550;28;20584;-45
2023/11/21 04:15:17;;;;;;;224.13;61.53;;;;;;;;;;5031423;28;20410;-44
2023/11/21 04:17:43;;;;;;;223.40;60.93;;;;;;;;;;5020899;28;20488;-45
2023/11/21 04:20:09;;;;;;;222.18;57.35;;;;;;;;;;5020742;28;20414;-44
2023/11/21 04:22:43;;;;;;;222.32;57.58;;;;;;;;;;5028310;28;20183;-44
2023/11/21 04:25:14;;;;;;;219.68;56.88;;;;;;;;;;5013862;28;20214;-45
2023/11/21 04:27:45;;;;;;;224.82;59.08;;;;;;;;;;5032926;28;20305;-44
2023/11/21 04:30:11;;;;;;;224.82;60.97;;;;;;;;;;5014696;28;20242;-44
2023/11/21 04:32:38;;;;;;;223.43;59.92;;;;;;;;;;5026751;28;20179;-45
2023/11/21 04:35:05;;;;;;;221.13;56.63;;;;;;;;;;5022546;28;20175;-45
2023/11/21 04:37:30;;;;;;;222.95;57.95;;;;;;;;;;5017835;28;20202;-45
2023/11/21 04:39:56;;;;;;;221.20;56.83;;;;;;;;;;5029897;28;20179;-44
2023/11/21 04:42:22;;;;;;;221.70;58.20;;;;;;;;;;5012926;28;20506;-45
2023/11/21 04:44:49;;;;;;;221.80;58.17;;;;;;;;;;4995229;28;20410;-45
2023/11/21 04:47:15;;;;;;;220.93;56.10;;;;;;;;;;5006146;28;20423;-45
2023/11/21 04:49:47;;;;;;;221.00;57.23;;;;;;;;;;5003611;28;20529;-44
2023/11/21 04:52:13;;;;;;;220.30;55.05;;;;;;;;;;4998984;28;20406;-45
2023/11/21 04:54:39;;;;;;;223.55;59.35;;;;;;;;;;5010478;28;20168;-44
2023/11/21 04:57:07;;;;;;;218.98;53.92;;;;;;;;;;4992707;28;20185;-45
2023/11/21 04:59:33;;;;;;;222.82;58.28;;;;;;;;;;5010779;28;20176;-45
2023/11/21 05:02:00;;;;;;;222.68;59.03;;;;;;;;;;4998370;28;20695;-45
2023/11/21 05:04:26;;;;;;;222.50;57.40;;;;;;;;;;5002700;28;20183;-45
2023/11/21 05:06:52;;;;;;;219.83;55.80;;;;;;;;;;5006169;28;20216;-45
2023/11/21 05:09:17;;;;;;;221.33;56.27;;;;;;;;;;4994494;28;20432;-45
2023/11/21 05:11:43;;;;;;;221.53;57.03;;;;;;;;;;5012529;28;20445;-45
2023/11/21 05:14:09;;;;;;;221.53;56.07;;;;;;;;;;4994646;28;20411;-45
2023/11/21 05:16:36;;;;;;;222.30;58.10;;;;;;;;;;5005871;28;20997;-45
2023/11/21 05:19:03;;;;;;;221.52;57.33;;;;;;;;;;5002397;28;20435;-44
2023/11/21 05:21:33;;;;;;;221.77;55.70;;;;;;;;;;4997910;28;20643;-44
2023/11/21 05:23:59;;;;;;;223.00;57.20;;;;;;;;;;5011706;28;20606;-45
2023/11/21 05:26:25;;;;;;;222.75;57.80;;;;;;;;;;5011948;28;20266;-45
2023/11/21 05:28:51;;;;;;;223.38;58.72;;;;;;;;;;4994095;28;20207;-45
2023/11/21 05:31:17;;;;;;;224.33;59.63;;;;;;;;;;5006045;28;20636;-44
2023/11/21 05:33:43;;;;;;;218.33;56.37;;;;;;;;;;5002235;28;20440;-45
2023/11/21 05:36:09;;;;;;;223.87;58.17;;;;;;;;;;4997842;28;20775;-45
2023/11/21 05:38:36;;;;;;;220.75;56.30;;;;;;;;;;5010232;28;20396;-44
2023/11/21 05:41:03;;;;;;;220.80;55.92;;;;;;;;;;4992329;28;20740;-44
2023/11/21 05:43:30;;;;;;;219.75;55.83;;;;;;;;;;5010179;28;20267;-45
2023/11/21 05:45:56;;;;;;;221.10;56.58;;;;;;;;;;4997894;28;20172;-44
2023/11/21 05:48:23;;;;;;;219.93;57.00;;;;;;;;;;5001627;28;20172;-44
2023/11/21 05:50:49;;;;;;;223.77;59.03;;;;;;;;;;5006281;28;20451;-44
2023/11/21 05:53:15;;;;;;;221.60;57.80;;;;;;;;;;4993699;28;20164;-44
2023/11/21 05:55:42;;;;;;;224.32;58.13;;;;;;;;;;4994047;28;20559;-44
2023/11/21 05:58:08;;;;;;;221.77;56.08;;;;;;;;;;4994318;28;20196;-44
2023/11/21 06:00:34;;;;;;;220.63;56.10;;;;;;;;;;5005134;28;20712;-45
2023/11/21 06:03:00;;;;;;;219.57;56.03;;;;;;;;;;5002609;28;20699;-45
2023/11/21 06:05:26;;;;;;;221.52;57.30;;;;;;;;;;4996951;28;20466;-45
2023/11/21 06:07:58;;;;;;;222.23;56.95;;;;;;;;;;5010287;28;20184;-45
2023/11/21 06:10:24;;;;;;;221.25;57.25;;;;;;;;;;4992258;28;20165;-45
2023/11/21 06:15:54;;;;;;;217.57;55.83;;;;;;;;;;4992871;28;20212;-45
2023/11/21 06:18:20;;;;;;;220.82;58.40;;;;;;;;;;5006533;28;20176;-45
2023/11/21 06:20:47;;;;;;;218.90;56.27;;;;;;;;;;5000733;28;20203;-44
2023/11/21 06:23:13;;;;;;;221.95;59.08;;;;;;;;;;5005566;28;20441;-45
2023/11/21 06:25:40;;;;;;;225.27;60.65;;;;;;;;;;5008527;28;20183;-45
2023/11/21 06:28:06;;;;;;;221.93;58.55;;;;;;;;;;4991889;28;20730;-44
2023/11/21 06:30:32;;;;;;;222.53;61.57;;;;;;;;;;5010235;28;20263;-44
2023/11/21 06:32:59;;;;;;;221.80;60.83;;;;;;;;;;4997074;28;20403;-45
2023/11/21 06:35:27;;;;;;;225.00;64.15;;;;;;;;;;5001983;28;20407;-44
2023/11/21 06:37:53;;;;;;;225.65;66.00;;;;;;;;;;5004606;28;20197;-45
2023/11/21 06:40:19;;;;;;;227.17;67.27;;;;;;;;;;4994163;28;20725;-44
2023/11/21 06:42:46;;;;;;;225.95;65.18;;;;;;;;;;5011449;28;20783;-45
2023/11/21 06:45:13;;;;;;;226.63;66.60;;;;;;;;;;4994224;28;20539;-44
2023/11/21 06:47:39;;;;;;;222.55;61.28;;;;;;;;;;5009345;28;20257;-44
2023/11/21 06:50:07;;;;;;;224.23;63.33;;;;;;;;;;5004350;28;20172;-44
2023/11/21 06:52:33;;;;;;;224.25;63.22;;;;;;;;;;5001787;28;20223;-45
2023/11/21 06:54:59;;;;;;;221.40;59.80;;;;;;;;;;5012328;28;20183;-44
2023/11/21 06:57:25;;;;;;;225.23;63.58;;;;;;;;;;4994978;28;20430;-44
2023/11/21 06:59:51;;;;;;;222.48;60.75;;;;;;;;;;5013399;28;20176;-44
2023/11/21 07:02:18;;;;;;;219.63;58.38;;;;;;;;;;5000375;28;20200;-44
2023/11/21 07:04:47;;;;;;;221.85;60.88;;;;;;;;;;5005338;28;20697;-45
2023/11/21 07:07:13;;;;;;;224.68;64.28;;;;;;;;;;5007764;28;20209;-44
2023/11/21 07:09:39;;;;;;;220.97;59.57;;;;;;;;;;4997641;28;20743;-44
2023/11/21 07:12:07;;;;;;;224.93;63.03;;;;;;;;;;5014462;28;20419;-44
2023/11/21 07:14:33;;;;;;;227.25;66.20;;;;;;;;;;4995741;28;20173;-45
2023/11/21 07:16:59;;;;;;;223.77;62.63;;;;;;;;;;5002697;28;20303;-44
2023/11/21 07:19:25;;;;;;;223.77;62.10;;;;;;;;;;5013324;28;20310;-45
2023/11/21 07:21:51;;;;;;;227.10;63.83;;;;;;;;;;5008930;28;20468;-44
2023/11/21 07:24:17;;;;;;;223.03;60.67;;;;;;;;;;5012371;28;20429;-45
2023/11/21 07:26:43;;;;;;;226.97;64.50;;;;;;;;;;5011098;28;20451;-45
2023/11/21 07:29:11;;;;;;;225.25;64.43;;;;;;;;;;5022055;28;20427;-44
2023/11/21 07:31:38;;;;;;;223.25;62.08;;;;;;;;;;5025625;28;20590;-44
2023/11/21 07:34:04;;;;;;;220.18;59.42;;;;;;;;;;5023669;28;20642;-44
2023/11/21 07:36:30;;;;;;;223.30;61.53;;;;;;;;;;5024336;28;20282;-45
2023/11/21 07:38:55;;;;;;;221.93;61.00;;;;;;;;;;5028231;28;20406;-44
2023/11/21 07:41:22;;;;;;;224.97;66.30;;;;;;;;;;5018103;28;20461;-44
2023/11/21 07:43:48;;;;;;;223.77;64.50;;;;;;;;;;5025356;28;20414;-45
2023/11/21 07:46:14;;;;;;;221.10;60.40;;;;;;;;;;5022863;28;20238;-44
2023/11/21 07:48:41;;;;;;;224.00;63.17;;;;;;;;;;5024132;28;20452;-45
2023/11/21 07:51:08;;;;;;;224.15;64.32;;;;;;;;;;5022997;28;20607;-45
2023/11/21 07:53:34;;;;;;;224.45;63.47;;;;;;;;;;5023307;28;20251;-44
2023/11/21 07:56:07;;;;;;;224.70;63.70;;;;;;;;;;5021780;28;20667;-44
2023/11/21 07:58:33;;;;;;;222.25;62.22;;;;;;;;;;5021608;28;20522;-44
2023/11/21 08:01:00;;;;;;;222.55;61.85;;;;;;;;;;5027631;28;20203;-45
2023/11/21 08:03:32;;;;;;;221.40;61.40;;;;;;;;;;5013522;28;20167;-44
2023/11/21 08:05:58;;;;;;;223.25;63.78;;;;;;;;;;5019685;28;20248;-44
2023/11/21 08:08:25;;;;;;;223.18;60.90;;;;;;;;;;5013242;28;20168;-44
2023/11/21 08:10:57;;;;;;;223.20;61.67;;;;;;;;;;5021505;28;20180;-44
2023/11/21 08:13:24;;;;;;;225.35;65.07;;;;;;;;;;5024465;28;20209;-44
2023/11/21 08:15:50;;;;;;;225.15;62.85;;;;;;;;;;5024043;28;20188;-45
2023/11/21 08:18:17;;;;;;;225.38;64.28;;;;;;;;;;5025681;28;20206;-44
2023/11/21 08:20:43;;;;;;;227.80;67.28;;;;;;;;;;5021684;28;20191;-44
2023/11/21 08:23:09;;;;;;;225.10;63.47;;;;;;;;;;5023012;28;20229;-44
2023/11/21 08:25:35;;;;;;;232.85;69.25;;;;;;;;;;5024356;28;20168;-44
2023/11/21 08:28:01;;;;;;;225.43;63.33;;;;;;;;;;5022497;28;20604;-44
2023/11/21 08:30:29;;;;;;;232.18;73.60;;;;;;;;;;5024494;28;20470;-44
2023/11/21 08:32:57;;;;;;;223.85;59.08;;;;;;;;;;5021468;28;20640;-44
2023/11/21 08:35:24;;;;;;;229.52;64.32;;;;;;;;;;5023622;28;20671;-45
2023/11/21 08:37:52;;;;;;;223.20;59.20;;;;;;;;;;5020821;28;20203;-44
2023/11/21 08:40:19;;;;;;;226.25;66.03;;;;;;;;;;5021545;28;20201;-44
2023/11/21 08:42:45;;;;;;;228.75;70.15;;;;;;;;;;5025161;28;20590;-44
2023/11/21 08:45:12;;;;;;;225.30;64.90;;;;;;;;;;5020650;28;20712;-44
2023/11/21 08:47:38;;;;;;;226.93;65.25;;;;;;;;;;5021537;28;20233;-44
2023/11/21 08:50:07;;;;;;;228.57;67.40;;;;;;;;;;5021365;28;20175;-44
2023/11/21 08:52:33;;;;;;;222.93;61.15;;;;;;;;;;5020944;28;20176;-44
2023/11/21 08:55:02;;;;;;;222.57;59.73;;;;;;;;;;5020683;28;20180;-44
2023/11/21 08:57:29;;;;;;;223.57;61.70;;;;;;;;;;5026038;28;20431;-44
2023/11/21 08:59:55;;;;;;;221.55;59.28;;;;;;;;;;5025003;28;20266;-44
2023/11/21 09:02:26;;;;;;;221.32;59.38;;;;;;;;;;5018672;28;20203;-44
2023/11/21 09:04:52;;;;;;;221.82;59.63;;;;;;;;;;5018177;28;20181;-44
2023/11/21 09:07:20;;;;;;;220.23;59.78;;;;;;;;;;5022367;28;20203;-44
2023/11/21 09:09:46;;;;;;;225.23;65.07;;;;;;;;;;5017247;28;20168;-44
2023/11/21 09:12:12;;;;;;;223.82;62.22;;;;;;;;;;5020319;28;20192;-44
2023/11/21 09:14:39;;;;;;;222.73;59.05;;;;;;;;;;5022934;28;20553;-44
2023/11/21 09:17:10;;;;;;;223.38;60.60;;;;;;;;;;5022804;28;20192;-44
2023/11/21 09:19:36;;;;;;;226.20;64.70;;;;;;;;;;5018392;28;20187;-44
2023/11/21 09:22:02;;;;;;;223.55;60.60;;;;;;;;;;5022846;28;20203;-45
2023/11/21 09:24:28;;;;;;;224.27;61.93;;;;;;;;;;5022310;28;20222;-44
2023/11/21 09:26:54;;;;;;;224.13;60.73;;;;;;;;;;5020879;28;20740;-44
2023/11/21 09:29:20;;;;;;;226.17;62.47;;;;;;;;;;5022660;28;20454;-44
2023/11/21 09:31:46;;;;;;;226.80;64.50;;;;;;;;;;5017008;28;20436;-44
2023/11/21 09:34:13;;;;;;;222.97;58.97;;;;;;;;;;5021402;28;20975;-45
2023/11/21 09:36:39;;;;;;;226.50;62.30;;;;;;;;;;5019768;28;20427;-44
2023/11/21 09:39:08;;;;;;;223.87;61.83;;;;;;;;;;5022543;28;20340;-44
2023/11/21 09:41:46;;;;;;;228.50;66.25;;;;;;;;;;5020986;28;20458;-45
2023/11/21 09:44:14;;;;;;;229.98;68.32;;;;;;;;;;5026339;28;20178;-44
2023/11/21 09:46:42;;;;;;;225.02;61.92;;;;;;;;;;5019971;28;20203;-45
2023/11/21 09:49:13;;;;;;;228.40;62.85;;;;;;;;;;5016630;28;20428;-44
2023/11/21 09:51:43;;;;;;;226.35;61.25;;;;;;;;;;5027370;28;20176;-44
2023/11/21 09:54:13;;;;;;;231.35;65.63;;;;;;;;;;5021351;28;20181;-44
2023/11/21 09:56:39;;;;;;;226.85;60.85;;;;;;;;;;5022957;28;20670;-44
2023/11/21 09:59:08;;;;;;;231.33;68.77;;;;;;;;;;5027196;28;20286;-44
2023/11/21 10:01:37;;;;;;;230.10;68.10;;;;;;;;;;5026964;28;20464;-44
2023/11/21 10:04:03;;;;;;;230.13;66.35;;;;;;;;;;5011907;28;20581;-45
2023/11/21 10:06:30;;;;;;;230.38;64.60;;;;;;;;;;5029649;28;20179;-44
2023/11/21 10:08:57;;;;;;;231.38;68.18;;;;;;;;;;5013346;28;20704;-44
2023/11/21 10:11:26;;;;;;;228.73;64.18;;;;;;;;;;5023586;28;20191;-44
2023/11/21 10:13:58;;;;;;;232.07;68.50;;;;;;;;;;5021931;28;20180;-44
2023/11/21 10:16:27;;;;;;;232.02;67.10;;;;;;;;;;5016561;28;20198;-44
2023/11/21 10:18:55;;;;;;;234.48;74.00;;;;;;;;;;5029199;28;20185;-44
2023/11/21 10:21:21;;;;;;;231.45;67.65;;;;;;;;;;5014806;28;20276;-45
2023/11/21 10:23:47;;;;;;;232.10;68.47;;;;;;;;;;5032938;28;20177;-45
2023/11/21 10:26:16;;;;;;;231.68;69.32;;;;;;;;;;5020829;28;20192;-45
2023/11/21 10:28:42;;;;;;;233.15;71.90;;;;;;;;;;5024975;28;20264;-44
2023/11/21 10:31:08;;;;;;;230.85;70.28;;;;;;;;;;5028919;28;20177;-44
2023/11/21 10:33:34;;;;;;;230.57;68.22;;;;;;;;;;5016865;28;20253;-45
2023/11/21 10:36:01;;;;;;;228.38;65.35;;;;;;;;;;5034566;28;20199;-45
2023/11/21 10:38:28;;;;;;;234.02;73.40;;;;;;;;;;5016741;28;20176;-45
2023/11/21 10:40:55;;;;;;;233.38;71.75;;;;;;;;;;5028658;28;20234;-44
2023/11/21 10:43:25;;;;;;;230.65;68.95;;;;;;;;;;5024642;28;20178;-44
2023/11/21 10:45:51;;;;;;;232.13;71.80;;;;;;;;;;5020626;28;20650;-45
2023/11/21 10:48:17;;;;;;;230.47;69.63;;;;;;;;;;5031316;28;20198;-44
2023/11/21 10:50:44;;;;;;;233.48;72.55;;;;;;;;;;5014747;28;20410;-44
2023/11/21 10:53:11;;;;;;;231.88;67.95;;;;;;;;;;5009273;28;20545;-44
2023/11/21 10:55:37;;;;;;;236.30;72.75;;;;;;;;;;5000050;28;20179;-44
2023/11/21 10:58:04;;;;;;;229.23;65.93;;;;;;;;;;5004981;28;20309;-45
2023/11/21 11:00:31;;;;;;;229.75;65.40;;;;;;;;;;5008070;28;20905;-45
2023/11/21 11:02:58;;;;;;;232.02;69.07;;;;;;;;;;4996855;28;20225;-45
2023/11/21 11:05:25;;;;;;;231.13;65.25;;;;;;;;;;5014096;28;20630;-44
2023/11/21 11:07:59;;;;;;;226.95;62.60;;;;;;;;;;5013740;28;20659;-45
2023/11/21 11:10:26;;;;;;;227.48;63.17;;;;;;;;;;4999089;28;20584;-44
2023/11/21 11:12:53;;;;;;;231.23;66.45;;;;;;;;;;5006100;28;20202;-44
2023/11/21 11:15:19;;;;;;;228.75;64.07;;;;;;;;;;5006669;28;20181;-44
2023/11/21 11:17:46;;;;;;;228.75;65.45;;;;;;;;;;4997676;28;20231;-45
2023/11/21 11:20:13;;;;;;;230.10;65.72;;;;;;;;;;5014424;28;20174;-44
2023/11/21 11:22:42;;;;;;;227.95;67.03;;;;;;;;;;5004309;28;20215;-44
2023/11/21 11:25:14;;;;;;;227.57;63.80;;;;;;;;;;5013549;28;20555;-45
2023/11/21 11:27:59;;;;;;;227.57;64.38;;;;;;;;;;5001184;28;20403;-44
2023/11/21 11:30:38;;;;;;;229.93;65.90;;;;;;;;;;5005362;28;20603;-45
2023/11/21 11:33:12;;;;;;;227.68;65.20;;;;;;;;;;5005204;28;20267;-44
2023/11/21 11:35:57;;;;;;;231.02;65.70;;;;;;;;;;4999652;28;20177;-45
2023/11/21 11:38:23;;;;;;;227.23;63.25;;;;;;;;;;5009544;28;20728;-44
2023/11/21 11:40:52;;;;;;;229.07;64.40;;;;;;;;;;4994020;28;20191;-44
2023/11/21 11:43:25;;;;;;;229.63;64.05;;;;;;;;;;5013891;28;20737;-45
2023/11/21 11:45:52;;;;;;;228.38;63.90;;;;;;;;;;4996252;28;20174;-45
2023/11/21 11:48:18;;;;;;;228.93;63.53;;;;;;;;;;5007252;28;20172;-44
2023/11/21 11:51:10;;;;;;;228.03;65.40;;;;;;;;;;5004654;28;20190;-44
2023/11/21 11:53:37;;;;;;;230.70;65.65;;;;;;;;;;5002476;28;20413;-44
2023/11/21 11:56:22;;;;;;;229.45;64.15;;;;;;;;;;5008429;28;20205;-44
2023/11/21 11:58:48;;;;;;;226.05;61.10;;;;;;;;;;4996952;28;20196;-44
2023/11/21 12:01:17;;;;;;;229.05;65.18;;;;;;;;;;5013416;28;20194;-44
2023/11/21 12:03:43;;;;;;;228.13;64.85;;;;;;;;;;4994112;28;20171;-44
2023/11/21 12:06:11;;;;;;;229.13;63.95;;;;;;;;;;5008640;28;20170;-44
2023/11/21 12:08:37;;;;;;;230.10;67.10;;;;;;;;;;5001719;28;20165;-44
2023/11/21 12:11:04;;;;;;;231.90;69.18;;;;;;;;;;5000987;28;20176;-45
2023/11/21 12:13:30;;;;;;;226.73;62.35;;;;;;;;;;5009919;28;20173;-44
2023/11/21 12:15:56;;;;;;;225.20;60.07;;;;;;;;;;4993207;28;20253;-44
2023/11/21 12:18:22;;;;;;;230.57;65.13;;;;;;;;;;5012381;28;20415;-45
2023/11/21 12:20:50;;;;;;;225.17;60.27;;;;;;;;;;4997939;28;20224;-44
2023/11/21 12:23:16;;;;;;;228.50;63.08;;;;;;;;;;5007614;28;20442;-44
2023/11/21 12:25:43;;;;;;;230.80;66.03;;;;;;;;;;5005186;28;20208;-44
2023/11/21 12:28:09;;;;;;;230.85;65.28;;;;;;;;;;4996270;28;20674;-44
2023/11/21 12:30:35;;;;;;;225.27;61.17;;;;;;;;;;5012910;28;20173;-44
2023/11/21 12:33:02;;;;;;;226.88;62.22;;;;;;;;;;4994052;28;20984;-44
2023/11/21 12:35:29;;;;;;;229.75;64.38;;;;;;;;;;5008076;28;20200;-45
2023/11/21 12:37:58;;;;;;;225.15;59.47;;;;;;;;;;5001260;28;20243;-45
2023/11/21 12:40:25;;;;;;;225.07;60.58;;;;;;;;;;5000423;28;20585;-44
2023/11/21 12:42:55;;;;;;;224.75;61.38;;;;;;;;;;4990924;28;20197;-44
2023/11/21 12:45:22;;;;;;;227.60;62.85;;;;;;;;;;4992737;28;20173;-44
2023/11/21 12:47:50;;;;;;;226.70;65.70;;;;;;;;;;5012590;28;20196;-44
2023/11/21 12:50:16;;;;;;;228.38;63.05;;;;;;;;;;4996249;28;20169;-44
2023/11/21 12:52:46;;;;;;;228.45;62.25;;;;;;;;;;5004990;28;20210;-44
2023/11/21 12:55:14;;;;;;;229.45;65.88;;;;;;;;;;5003724;28;20177;-44
2023/11/21 12:57:43;;;;;;;228.07;65.15;;;;;;;;;;4997100;28;20206;-45
2023/11/21 13:00:13;;;;;;;228.45;64.45;;;;;;;;;;5010958;28;20251;-45
2023/11/21 13:02:42;;;;;;;232.90;70.40;;;;;;;;;;4992698;28;20566;-45
2023/11/21 13:05:18;;;;;;;228.40;66.57;;;;;;;;;;5010334;28;20176;-44
2023/11/21 13:07:46;;;;;;;225.30;61.97;;;;;;;;;;4996829;28;20288;-45
2023/11/21 13:10:13;;;;;;;225.55;62.03;;;;;;;;;;5003867;28;20712;-44
2023/11/21 13:12:44;;;;;;;226.48;64.60;;;;;;;;;;5004541;28;20190;-44
2023/11/21 13:15:10;;;;;;;226.68;64.00;;;;;;;;;;4996567;28;20651;-44
2023/11/21 13:17:36;;;;;;;230.35;67.40;;;;;;;;;;5011704;28;20188;-45
2023/11/21 13:20:05;;;;;;;226.90;62.30;;;;;;;;;;4992450;28;20621;-44
2023/11/21 13:22:32;;;;;;;225.70;62.05;;;;;;;;;;5008335;28;20810;-44
2023/11/21 13:24:58;;;;;;;226.82;61.45;;;;;;;;;;5011336;28;20226;-44
2023/11/21 13:27:25;;;;;;;229.55;65.15;;;;;;;;;;5003192;28;20192;-44
2023/11/21 13:29:51;;;;;;;228.77;64.25;;;;;;;;;;4996402;28;20278;-44
2023/11/21 13:32:20;;;;;;;225.43;62.67;;;;;;;;;;5011996;28;20586;-45
2023/11/21 13:34:47;;;;;;;224.40;56.92;;;;;;;;;;4992327;28;20407;-44
2023/11/21 13:37:13;;;;;;;226.73;58.78;;;;;;;;;;5008138;28;20227;-44
2023/11/21 13:39:44;;;;;;;229.87;61.20;;;;;;;;;;4999150;28;20204;-44
2023/11/21 13:42:11;;;;;;;223.52;54.78;;;;;;;;;;5001165;28;20459;-44
2023/11/21 13:44:40;;;;;;;226.18;58.75;;;;;;;;;;5006712;28;20169;-45
2023/11/21 13:47:06;;;;;;;227.30;57.65;;;;;;;;;;4993129;28;20227;-45
2023/11/21 13:49:40;;;;;;;223.32;55.33;;;;;;;;;;5011629;28;20166;-44
2023/11/21 13:52:07;;;;;;;225.40;57.70;;;;;;;;;;4993443;28;20178;-44
2023/11/21 13:54:33;;;;;;;222.23;56.00;;;;;;;;;;5006620;28;20191;-44
2023/11/21 13:57:00;;;;;;;226.73;58.75;;;;;;;;;;5005217;28;20582;-44
2023/11/21 13:59:28;;;;;;;224.35;56.03;;;;;;;;;;5002094;28;20273;-45
2023/11/21 14:01:55;;;;;;;226.40;57.00;;;;;;;;;;5012931;28;20220;-44
2023/11/21 14:04:35;;;;;;;227.73;58.60;;;;;;;;;;4995303;28;20168;-45
2023/11/21 14:07:17;;;;;;;225.32;57.60;;;;;;;;;;5014410;28;20215;-44